createdAt,value
2017-05-17T00:00:02.315Z,15.71
2017-05-17T00:00:30.579Z,15.65
2017-05-17T00:00:58.665Z,15.74
2017-05-17T00:01:26.930Z,15.65
2017-05-17T00:01:55.147Z,15.62
2017-05-17T00:02:23.464Z,15.7
2017-05-17T00:02:51.756Z,15.67
2017-05-17T00:03:19.887Z,15.63
2017-05-17T00:03:48.011Z,15.62
2017-05-17T00:04:16.317Z,15.6
2017-05-17T00:04:44.531Z,15.58
2017-05-17T00:05:12.709Z,15.71
2017-05-17T00:05:40.874Z,15.7
2017-05-17T00:06:09.034Z,15.63
2017-05-17T00:06:37.276Z,15.55
2017-05-17T00:07:05.506Z,15.58
2017-05-17T00:07:33.740Z,15.53
2017-05-17T00:08:02.040Z,15.58
2017-05-17T00:08:30.316Z,15.52
2017-05-17T00:08:58.564Z,15.53
2017-05-17T00:09:26.823Z,15.58
2017-05-17T00:09:55.121Z,15.53
2017-05-17T00:10:23.401Z,15.51
2017-05-17T00:10:51.616Z,15.56
2017-05-17T00:11:19.689Z,15.56
2017-05-17T00:11:47.970Z,15.49
2017-05-17T00:12:16.224Z,15.45
2017-05-17T00:12:44.535Z,15.56
2017-05-17T00:13:12.812Z,15.53
2017-05-17T00:13:41.053Z,15.58
2017-05-17T00:14:09.333Z,15.56
2017-05-17T00:14:37.656Z,15.58
2017-05-17T00:15:05.665Z,15.6
2017-05-17T00:15:33.773Z,15.56
2017-05-17T00:16:01.941Z,15.45
2017-05-17T00:16:30.253Z,15.52
2017-05-17T00:16:58.542Z,15.55
2017-05-17T00:17:26.732Z,15.49
2017-05-17T00:17:54.987Z,15.45
2017-05-17T00:18:23.129Z,15.49
2017-05-17T00:18:51.300Z,15.45
2017-05-17T00:19:19.582Z,15.49
2017-05-17T00:19:47.793Z,15.47
2017-05-17T00:20:16.099Z,15.51
2017-05-17T00:20:44.229Z,15.51
2017-05-17T00:21:12.432Z,15.51
2017-05-17T00:21:40.585Z,15.56
2017-05-17T00:22:08.742Z,15.44
2017-05-17T00:22:37.063Z,15.53
2017-05-17T00:23:05.935Z,15.55
2017-05-17T00:23:34.145Z,15.56
2017-05-17T00:24:02.468Z,15.6
2017-05-17T00:24:30.719Z,15.45
2017-05-17T00:24:58.894Z,15.55
2017-05-17T00:25:27.247Z,15.43
2017-05-17T00:25:55.516Z,15.59
2017-05-17T00:26:23.745Z,15.49
2017-05-17T00:26:51.981Z,15.59
2017-05-17T00:27:20.227Z,15.51
2017-05-17T00:27:48.589Z,15.49
2017-05-17T00:28:16.570Z,15.62
2017-05-17T00:28:44.913Z,15.58
2017-05-17T00:29:13.171Z,15.53
2017-05-17T00:29:41.472Z,15.6
2017-05-17T00:30:09.751Z,15.56
2017-05-17T00:30:37.883Z,15.53
2017-05-17T00:31:06.108Z,15.53
2017-05-17T00:31:34.243Z,15.51
2017-05-17T00:32:02.401Z,15.59
2017-05-17T00:32:30.546Z,15.49
2017-05-17T00:32:59.679Z,15.62
2017-05-17T00:33:27.999Z,15.58
2017-05-17T00:33:56.219Z,15.53
2017-05-17T00:34:24.338Z,15.55
2017-05-17T00:34:52.575Z,15.53
2017-05-17T00:35:20.822Z,15.59
2017-05-17T00:35:49.067Z,15.51
2017-05-17T00:36:17.347Z,15.51
2017-05-17T00:36:45.550Z,15.49
2017-05-17T00:37:13.852Z,15.47
2017-05-17T00:37:42.017Z,15.6
2017-05-17T00:38:10.353Z,15.55
2017-05-17T00:38:38.623Z,15.56
2017-05-17T00:39:06.919Z,15.49
2017-05-17T00:39:35.235Z,15.52
2017-05-17T00:40:03.517Z,15.59
2017-05-17T00:40:31.670Z,15.55
2017-05-17T00:40:59.688Z,15.6
2017-05-17T00:41:27.632Z,15.56
2017-05-17T00:41:55.794Z,15.56
2017-05-17T00:42:23.957Z,15.55
2017-05-17T00:42:52.179Z,15.55
2017-05-17T00:43:20.601Z,15.52
2017-05-17T00:43:48.923Z,15.56
2017-05-17T00:44:17.118Z,15.58
2017-05-17T00:44:45.184Z,15.56
2017-05-17T00:45:13.416Z,15.53
2017-05-17T00:45:41.654Z,15.62
2017-05-17T00:46:09.654Z,15.51
2017-05-17T00:46:37.897Z,15.56
2017-05-17T00:47:05.896Z,15.56
2017-05-17T00:47:33.966Z,15.55
2017-05-17T00:48:02.174Z,15.56
2017-05-17T00:48:30.425Z,15.49
2017-05-17T00:48:58.694Z,15.62
2017-05-17T00:49:26.871Z,15.56
2017-05-17T00:49:55.051Z,15.56
2017-05-17T00:50:23.185Z,15.53
2017-05-17T00:50:51.454Z,15.59
2017-05-17T00:51:19.513Z,15.56
2017-05-17T00:51:47.673Z,15.49
2017-05-17T00:52:15.982Z,15.6
2017-05-17T00:52:44.086Z,15.59
2017-05-17T00:53:12.509Z,15.58
2017-05-17T00:53:40.789Z,15.52
2017-05-17T00:54:08.996Z,15.56
2017-05-17T00:54:37.293Z,15.52
2017-05-17T00:55:05.559Z,15.6
2017-05-17T00:55:33.702Z,15.52
2017-05-17T00:56:01.846Z,15.53
2017-05-17T00:56:30.024Z,15.55
2017-05-17T00:56:58.185Z,15.51
2017-05-17T00:57:26.468Z,15.58
2017-05-17T00:57:54.655Z,15.62
2017-05-17T00:58:23.051Z,15.67
2017-05-17T00:58:51.311Z,15.65
2017-05-17T00:59:19.492Z,15.65
2017-05-17T00:59:47.601Z,15.67
2017-05-17T01:00:15.893Z,15.7
2017-05-17T01:00:43.917Z,15.68
2017-05-17T01:01:12.188Z,15.65
2017-05-17T01:01:40.377Z,15.63
2017-05-17T01:02:08.693Z,15.71
2017-05-17T01:02:36.995Z,15.67
2017-05-17T01:03:05.152Z,15.8
2017-05-17T01:03:33.773Z,15.73
2017-05-17T01:04:01.947Z,15.73
2017-05-17T01:04:30.080Z,15.75
2017-05-17T01:04:58.259Z,15.77
2017-05-17T01:05:26.406Z,15.78
2017-05-17T01:05:54.710Z,15.78
2017-05-17T01:06:23.027Z,15.78
2017-05-17T01:06:51.213Z,15.77
2017-05-17T01:07:19.360Z,15.86
2017-05-17T01:07:47.603Z,15.77
2017-05-17T01:08:15.930Z,15.78
2017-05-17T01:08:44.225Z,15.8
2017-05-17T01:09:12.383Z,15.78
2017-05-17T01:09:40.701Z,15.89
2017-05-17T01:10:51.859Z,15.81
2017-05-17T01:11:20.515Z,15.8
2017-05-17T01:11:48.955Z,15.88
2017-05-17T01:12:17.240Z,15.83
2017-05-17T01:12:45.818Z,15.88
2017-05-17T01:13:14.081Z,15.86
2017-05-17T01:13:42.360Z,15.89
2017-05-17T01:14:10.631Z,15.83
2017-05-17T01:14:38.864Z,15.77
2017-05-17T01:15:07.063Z,15.91
2017-05-17T01:15:35.313Z,15.84
2017-05-17T01:16:03.563Z,15.91
2017-05-17T01:16:31.845Z,15.86
2017-05-17T01:17:00.102Z,15.84
2017-05-17T01:17:28.377Z,15.83
2017-05-17T01:17:56.550Z,15.84
2017-05-17T01:18:24.975Z,15.8
2017-05-17T01:18:53.186Z,15.88
2017-05-17T01:19:21.382Z,15.83
2017-05-17T01:19:49.457Z,15.84
2017-05-17T01:20:17.602Z,15.88
2017-05-17T01:20:45.844Z,15.88
2017-05-17T01:21:14.116Z,15.89
2017-05-17T01:21:42.660Z,15.84
2017-05-17T01:22:31.249Z,15.88
2017-05-17T01:22:59.556Z,15.89
2017-05-17T01:23:27.829Z,15.89
2017-05-17T01:23:56.169Z,15.83
2017-05-17T01:24:24.434Z,15.88
2017-05-17T01:24:52.697Z,15.88
2017-05-17T01:25:21.118Z,15.91
2017-05-17T01:25:49.227Z,15.98
2017-05-17T01:26:17.435Z,15.96
2017-05-17T01:26:45.869Z,15.93
2017-05-17T01:27:13.954Z,15.93
2017-05-17T01:27:42.232Z,15.91
2017-05-17T01:28:10.465Z,15.92
2017-05-17T01:28:38.741Z,15.95
2017-05-17T01:29:06.906Z,16
2017-05-17T01:29:35.163Z,15.99
2017-05-17T01:30:03.616Z,16.04
2017-05-17T01:30:31.967Z,15.98
2017-05-17T01:31:00.076Z,16.06
2017-05-17T01:31:28.239Z,15.95
2017-05-17T01:31:56.689Z,15.96
2017-05-17T01:32:24.939Z,15.96
2017-05-17T01:32:53.067Z,15.93
2017-05-17T01:33:21.510Z,15.92
2017-05-17T01:33:49.985Z,15.95
2017-05-17T01:34:18.144Z,16
2017-05-17T01:34:46.271Z,16.06
2017-05-17T01:35:14.415Z,15.98
2017-05-17T01:35:42.599Z,15.95
2017-05-17T01:36:10.777Z,15.95
2017-05-17T01:36:38.882Z,15.96
2017-05-17T01:37:07.147Z,15.93
2017-05-17T01:37:35.437Z,16.04
2017-05-17T01:38:03.891Z,15.86
2017-05-17T01:38:32.155Z,15.96
2017-05-17T01:39:00.263Z,16.06
2017-05-17T01:39:28.427Z,16.02
2017-05-17T01:39:56.716Z,16.06
2017-05-17T01:40:24.935Z,15.88
2017-05-17T01:40:53.091Z,16.04
2017-05-17T01:41:21.413Z,15.96
2017-05-17T01:41:49.720Z,15.96
2017-05-17T01:42:17.999Z,15.95
2017-05-17T01:42:46.156Z,15.93
2017-05-17T01:43:14.327Z,15.92
2017-05-17T01:43:42.449Z,15.84
2017-05-17T01:44:11.031Z,15.89
2017-05-17T01:44:39.202Z,15.91
2017-05-17T01:45:07.451Z,15.8
2017-05-17T01:45:35.708Z,15.81
2017-05-17T01:46:04.158Z,15.81
2017-05-17T01:46:32.352Z,15.73
2017-05-17T01:47:00.575Z,15.81
2017-05-17T01:47:28.779Z,15.74
2017-05-17T01:47:57.026Z,15.74
2017-05-17T01:48:25.165Z,15.71
2017-05-17T01:48:53.378Z,15.67
2017-05-17T01:49:21.919Z,15.71
2017-05-17T01:49:50.091Z,15.68
2017-05-17T01:50:18.288Z,15.77
2017-05-17T01:50:46.721Z,15.67
2017-05-17T01:51:14.763Z,15.62
2017-05-17T01:51:42.977Z,15.68
2017-05-17T01:52:11.256Z,15.65
2017-05-17T01:52:39.626Z,15.63
2017-05-17T01:53:07.892Z,15.6
2017-05-17T01:53:36.144Z,15.59
2017-05-17T01:54:04.711Z,15.56
2017-05-17T01:54:33.022Z,15.53
2017-05-17T01:55:01.304Z,15.53
2017-05-17T01:55:29.465Z,15.56
2017-05-17T01:55:57.705Z,15.56
2017-05-17T01:56:25.987Z,15.55
2017-05-17T01:56:54.275Z,15.59
2017-05-17T01:57:23.042Z,15.56
2017-05-17T01:57:51.249Z,15.53
2017-05-17T01:58:19.518Z,15.41
2017-05-17T01:58:47.622Z,15.56
2017-05-17T01:59:15.929Z,15.53
2017-05-17T01:59:44.165Z,15.47
2017-05-17T02:00:12.486Z,15.49
2017-05-17T02:00:40.715Z,15.51
2017-05-17T02:01:09.012Z,15.51
2017-05-17T02:01:37.198Z,15.37
2017-05-17T02:02:05.557Z,15.37
2017-05-17T02:02:33.731Z,15.44
2017-05-17T02:03:01.676Z,15.38
2017-05-17T02:03:29.780Z,15.4
2017-05-17T02:03:57.836Z,15.38
2017-05-17T02:04:26.116Z,15.41
2017-05-17T02:04:54.192Z,15.4
2017-05-17T02:05:22.739Z,15.45
2017-05-17T02:05:50.843Z,15.35
2017-05-17T02:06:19.053Z,15.3
2017-05-17T02:06:47.322Z,15.38
2017-05-17T02:07:15.643Z,15.38
2017-05-17T02:07:43.878Z,15.38
2017-05-17T02:08:12.036Z,15.37
2017-05-17T02:08:40.277Z,15.33
2017-05-17T02:09:08.544Z,15.31
2017-05-17T02:09:36.810Z,15.33
2017-05-17T02:10:05.063Z,15.23
2017-05-17T02:10:33.154Z,15.25
2017-05-17T02:11:01.417Z,15.3
2017-05-17T02:11:29.725Z,15.31
2017-05-17T02:11:58.096Z,15.33
2017-05-17T02:12:26.313Z,15.34
2017-05-17T02:12:54.647Z,15.25
2017-05-17T02:13:22.798Z,15.31
2017-05-17T02:13:51.043Z,15.35
2017-05-17T02:14:19.200Z,15.37
2017-05-17T02:14:47.552Z,15.3
2017-05-17T02:15:15.979Z,15.31
2017-05-17T02:15:44.244Z,15.26
2017-05-17T02:16:12.470Z,15.3
2017-05-17T02:16:40.772Z,15.25
2017-05-17T02:17:09.067Z,15.31
2017-05-17T02:17:37.235Z,15.31
2017-05-17T02:18:05.560Z,15.26
2017-05-17T02:18:33.880Z,15.22
2017-05-17T02:19:02.182Z,15.2
2017-05-17T02:19:30.358Z,15.3
2017-05-17T02:19:58.592Z,15.3
2017-05-17T02:20:26.880Z,15.34
2017-05-17T02:20:55.062Z,15.27
2017-05-17T02:21:23.241Z,15.3
2017-05-17T02:21:51.518Z,15.23
2017-05-17T02:22:19.784Z,15.2
2017-05-17T02:22:48.008Z,15.22
2017-05-17T02:23:16.221Z,15.16
2017-05-17T02:23:44.315Z,15.19
2017-05-17T02:24:12.614Z,15.19
2017-05-17T02:24:40.913Z,15.23
2017-05-17T02:25:09.174Z,15.15
2017-05-17T02:25:37.396Z,15.18
2017-05-17T02:26:05.470Z,15.16
2017-05-17T02:26:33.784Z,15.23
2017-05-17T02:27:02.052Z,15.25
2017-05-17T02:27:30.357Z,15.22
2017-05-17T02:27:58.791Z,15.19
2017-05-17T02:28:27.075Z,15.25
2017-05-17T02:28:55.358Z,15.22
2017-05-17T02:29:23.662Z,15.12
2017-05-17T02:29:52.004Z,15.22
2017-05-17T02:30:20.231Z,15.16
2017-05-17T02:30:48.238Z,15.19
2017-05-17T02:31:16.339Z,15.16
2017-05-17T02:31:44.685Z,15.18
2017-05-17T02:32:12.860Z,15.18
2017-05-17T02:32:41.148Z,15.19
2017-05-17T02:33:09.246Z,15.16
2017-05-17T02:33:37.386Z,15.13
2017-05-17T02:34:05.544Z,15.18
2017-05-17T02:34:33.781Z,15.16
2017-05-17T02:35:02.099Z,15.19
2017-05-17T02:35:30.363Z,15.25
2017-05-17T02:35:58.529Z,15.25
2017-05-17T02:36:27.014Z,15.26
2017-05-17T02:36:55.429Z,15.22
2017-05-17T02:37:23.640Z,15.19
2017-05-17T02:37:51.840Z,15.22
2017-05-17T02:38:19.900Z,15.25
2017-05-17T02:38:48.185Z,15.22
2017-05-17T02:39:16.144Z,15.2
2017-05-17T02:39:44.323Z,15.23
2017-05-17T02:40:12.762Z,15.27
2017-05-17T02:40:40.910Z,15.31
2017-05-17T02:41:09.246Z,15.33
2017-05-17T02:41:37.532Z,15.3
2017-05-17T02:42:05.709Z,15.33
2017-05-17T02:42:34.015Z,15.3
2017-05-17T02:43:02.199Z,15.22
2017-05-17T02:43:30.271Z,15.3
2017-05-17T02:43:58.532Z,15.23
2017-05-17T02:44:26.650Z,15.3
2017-05-17T02:44:55.065Z,15.23
2017-05-17T02:45:23.307Z,15.25
2017-05-17T02:45:51.459Z,15.12
2017-05-17T02:46:19.749Z,15.16
2017-05-17T02:46:47.965Z,15.18
2017-05-17T02:47:16.056Z,15.15
2017-05-17T02:47:44.351Z,15.18
2017-05-17T02:48:12.595Z,15.16
2017-05-17T02:48:40.877Z,15.19
2017-05-17T02:49:09.043Z,15.15
2017-05-17T02:49:37.209Z,15.2
2017-05-17T02:50:05.692Z,15.19
2017-05-17T02:50:33.878Z,15.12
2017-05-17T02:51:02.144Z,15.19
2017-05-17T02:51:30.143Z,15.16
2017-05-17T02:51:58.095Z,15.23
2017-05-17T02:52:26.283Z,15.15
2017-05-17T02:52:54.534Z,15.18
2017-05-17T02:53:22.961Z,15.18
2017-05-17T02:53:51.243Z,15.13
2017-05-17T02:54:19.879Z,15.15
2017-05-17T02:54:48.096Z,15.07
2017-05-17T02:55:16.584Z,15.13
2017-05-17T02:55:44.887Z,15.02
2017-05-17T02:56:13.197Z,15.23
2017-05-17T02:56:41.942Z,15.16
2017-05-17T02:57:10.237Z,15.08
2017-05-17T02:57:38.707Z,15.18
2017-05-17T02:58:06.830Z,15.19
2017-05-17T02:58:35.113Z,15.15
2017-05-17T02:59:03.237Z,15.19
2017-05-17T02:59:31.428Z,15.18
2017-05-17T02:59:59.570Z,15.07
2017-05-17T03:00:27.987Z,15.15
2017-05-17T03:00:56.145Z,15.04
2017-05-17T03:01:24.332Z,15.08
2017-05-17T03:01:52.372Z,15.04
2017-05-17T03:02:20.556Z,15.07
2017-05-17T03:02:48.700Z,15.07
2017-05-17T03:03:16.845Z,15.05
2017-05-17T03:03:45.132Z,15.07
2017-05-17T03:04:13.410Z,15.05
2017-05-17T03:04:41.642Z,15.01
2017-05-17T03:05:09.927Z,15.05
2017-05-17T03:05:37.833Z,15.07
2017-05-17T03:06:05.996Z,15.02
2017-05-17T03:06:34.313Z,15.04
2017-05-17T03:07:02.625Z,15.05
2017-05-17T03:07:30.769Z,15.05
2017-05-17T03:07:58.936Z,15.04
2017-05-17T03:08:27.041Z,15
2017-05-17T03:08:55.324Z,15.04
2017-05-17T03:09:23.607Z,15.05
2017-05-17T03:09:51.727Z,15.08
2017-05-17T03:10:20.132Z,15.02
2017-05-17T03:10:48.409Z,15.02
2017-05-17T03:11:16.457Z,15.04
2017-05-17T03:11:44.725Z,15.07
2017-05-17T03:12:12.943Z,15.04
2017-05-17T03:12:41.211Z,15.07
2017-05-17T03:13:09.506Z,14.98
2017-05-17T03:13:37.768Z,15.08
2017-05-17T03:14:05.963Z,15.04
2017-05-17T03:14:34.215Z,15.07
2017-05-17T03:15:02.472Z,15.08
2017-05-17T03:15:30.853Z,15.07
2017-05-17T03:15:59.002Z,15.07
2017-05-17T03:16:27.086Z,15.04
2017-05-17T03:16:55.298Z,15.13
2017-05-17T03:17:23.487Z,15.1
2017-05-17T03:17:51.587Z,15.12
2017-05-17T03:18:19.761Z,15.07
2017-05-17T03:18:47.932Z,15.05
2017-05-17T03:19:16.117Z,15.05
2017-05-17T03:19:44.370Z,15.01
2017-05-17T03:20:12.577Z,15.04
2017-05-17T03:20:40.974Z,15.04
2017-05-17T03:21:09.116Z,15.02
2017-05-17T03:21:37.268Z,15.07
2017-05-17T03:22:05.428Z,15.01
2017-05-17T03:22:33.581Z,15.04
2017-05-17T03:23:01.679Z,15.02
2017-05-17T03:23:29.868Z,15.04
2017-05-17T03:23:58.133Z,15
2017-05-17T03:24:26.358Z,15
2017-05-17T03:24:54.539Z,15
2017-05-17T03:25:22.691Z,15.04
2017-05-17T03:25:50.875Z,15.05
2017-05-17T03:26:19.115Z,15.08
2017-05-17T03:26:47.353Z,15.08
2017-05-17T03:27:15.502Z,14.98
2017-05-17T03:27:43.655Z,15.07
2017-05-17T03:28:11.960Z,14.97
2017-05-17T03:28:40.183Z,14.98
2017-05-17T03:29:08.280Z,14.95
2017-05-17T03:29:36.469Z,14.94
2017-05-17T03:30:04.728Z,14.98
2017-05-17T03:30:33.043Z,14.95
2017-05-17T03:31:01.344Z,14.95
2017-05-17T03:31:29.572Z,14.95
2017-05-17T03:31:57.872Z,15
2017-05-17T03:32:26.050Z,15
2017-05-17T03:32:54.178Z,14.93
2017-05-17T03:33:22.457Z,14.93
2017-05-17T03:33:50.740Z,14.93
2017-05-17T03:34:18.982Z,14.97
2017-05-17T03:34:47.121Z,14.97
2017-05-17T03:35:15.426Z,14.93
2017-05-17T03:35:43.692Z,15.01
2017-05-17T03:36:12.023Z,14.93
2017-05-17T03:36:40.315Z,15.04
2017-05-17T03:37:08.620Z,15.02
2017-05-17T03:37:36.660Z,14.98
2017-05-17T03:38:04.941Z,14.98
2017-05-17T03:38:33.066Z,15
2017-05-17T03:39:01.033Z,15.01
2017-05-17T03:39:29.207Z,14.86
2017-05-17T03:39:57.442Z,14.97
2017-05-17T03:40:25.701Z,14.98
2017-05-17T03:40:53.975Z,14.98
2017-05-17T03:41:22.264Z,14.98
2017-05-17T03:42:33.488Z,14.98
2017-05-17T03:43:01.917Z,14.98
2017-05-17T03:43:30.213Z,14.85
2017-05-17T03:43:58.420Z,14.85
2017-05-17T03:44:26.773Z,15.01
2017-05-17T03:44:55.065Z,14.93
2017-05-17T03:45:23.484Z,14.87
2017-05-17T03:45:51.938Z,14.95
2017-05-17T03:46:20.255Z,14.97
2017-05-17T03:46:48.542Z,14.98
2017-05-17T03:47:16.832Z,14.9
2017-05-17T03:47:45.167Z,14.95
2017-05-17T03:48:13.452Z,14.9
2017-05-17T03:48:41.693Z,14.87
2017-05-17T03:49:10.063Z,14.95
2017-05-17T03:49:38.382Z,14.9
2017-05-17T03:50:06.685Z,14.94
2017-05-17T03:50:34.895Z,14.9
2017-05-17T03:51:03.200Z,14.83
2017-05-17T03:51:31.540Z,14.9
2017-05-17T03:51:59.867Z,14.9
2017-05-17T03:52:28.221Z,14.9
2017-05-17T03:52:56.356Z,14.94
2017-05-17T03:53:24.646Z,14.95
2017-05-17T03:53:52.816Z,14.9
2017-05-17T03:54:21.152Z,14.89
2017-05-17T03:54:49.454Z,14.93
2017-05-17T03:55:17.780Z,14.93
2017-05-17T03:55:46.073Z,14.94
2017-05-17T03:56:14.479Z,14.94
2017-05-17T03:56:42.802Z,14.94
2017-05-17T03:57:11.141Z,14.95
2017-05-17T03:57:39.357Z,14.93
2017-05-17T03:58:07.668Z,14.9
2017-05-17T03:58:35.921Z,14.95
2017-05-17T03:59:04.110Z,14.94
2017-05-17T03:59:32.453Z,14.98
2017-05-17T04:00:00.779Z,14.95
2017-05-17T04:00:28.992Z,14.93
2017-05-17T04:00:57.233Z,15.01
2017-05-17T04:01:25.493Z,14.93
2017-05-17T04:01:53.713Z,14.94
2017-05-17T04:02:21.818Z,14.98
2017-05-17T04:02:50.052Z,14.93
2017-05-17T04:03:18.246Z,15
2017-05-17T04:03:46.458Z,14.98
2017-05-17T04:04:14.768Z,14.95
2017-05-17T04:04:42.969Z,15.01
2017-05-17T04:05:11.255Z,14.98
2017-05-17T04:05:39.461Z,15.02
2017-05-17T04:06:07.824Z,15.08
2017-05-17T04:06:36.068Z,15
2017-05-17T04:07:04.349Z,14.97
2017-05-17T04:07:32.533Z,15.02
2017-05-17T04:08:00.844Z,14.97
2017-05-17T04:08:29.135Z,15.04
2017-05-17T04:08:57.275Z,15.04
2017-05-17T04:09:25.259Z,15.05
2017-05-17T04:09:53.612Z,15.05
2017-05-17T04:10:21.879Z,15.12
2017-05-17T04:10:50.238Z,15.08
2017-05-17T04:11:18.685Z,15.1
2017-05-17T04:11:46.935Z,15.08
2017-05-17T04:12:15.239Z,15.07
2017-05-17T04:12:43.480Z,15.1
2017-05-17T04:13:11.729Z,15.1
2017-05-17T04:13:40.044Z,15.05
2017-05-17T04:14:08.371Z,15
2017-05-17T04:14:36.585Z,15.13
2017-05-17T04:15:04.839Z,15.16
2017-05-17T04:15:33.168Z,15.05
2017-05-17T04:16:01.307Z,15.2
2017-05-17T04:16:29.601Z,15.18
2017-05-17T04:16:57.932Z,15.16
2017-05-17T04:17:26.169Z,15.15
2017-05-17T04:17:54.525Z,15.13
2017-05-17T04:18:22.772Z,15.1
2017-05-17T04:18:51.086Z,15.15
2017-05-17T04:19:19.399Z,15.16
2017-05-17T04:19:47.591Z,15.08
2017-05-17T04:20:15.710Z,15.16
2017-05-17T04:20:43.922Z,15.13
2017-05-17T04:21:12.248Z,15.1
2017-05-17T04:21:40.624Z,15.16
2017-05-17T04:22:08.938Z,15.15
2017-05-17T04:22:37.181Z,15.13
2017-05-17T04:23:05.500Z,15.18
2017-05-17T04:23:33.796Z,15.15
2017-05-17T04:24:02.080Z,15.19
2017-05-17T04:24:30.379Z,15.23
2017-05-17T04:24:58.668Z,15.18
2017-05-17T04:25:26.883Z,15.25
2017-05-17T04:25:55.118Z,15.34
2017-05-17T04:26:23.305Z,15.26
2017-05-17T04:26:51.740Z,15.3
2017-05-17T04:27:19.972Z,15.3
2017-05-17T04:27:48.233Z,15.25
2017-05-17T04:28:16.499Z,15.38
2017-05-17T04:28:44.696Z,15.25
2017-05-17T04:29:13.007Z,15.34
2017-05-17T04:29:41.139Z,15.37
2017-05-17T04:30:09.400Z,15.35
2017-05-17T04:30:37.688Z,15.41
2017-05-17T04:31:05.929Z,15.37
2017-05-17T04:31:34.313Z,15.33
2017-05-17T04:32:02.442Z,15.37
2017-05-17T04:32:30.720Z,15.31
2017-05-17T04:32:59.080Z,15.38
2017-05-17T04:33:27.418Z,15.51
2017-05-17T04:33:55.717Z,15.4
2017-05-17T04:34:23.911Z,15.41
2017-05-17T04:34:52.222Z,15.47
2017-05-17T04:35:20.516Z,15.45
2017-05-17T04:35:48.800Z,15.45
2017-05-17T04:36:17.144Z,15.51
2017-05-17T04:36:45.554Z,15.44
2017-05-17T04:37:13.855Z,15.51
2017-05-17T04:37:42.043Z,15.47
2017-05-17T04:38:10.327Z,15.6
2017-05-17T04:38:38.676Z,15.45
2017-05-17T04:39:07.020Z,15.49
2017-05-17T04:39:35.352Z,15.53
2017-05-17T04:40:03.628Z,15.56
2017-05-17T04:40:31.889Z,15.58
2017-05-17T04:41:00.145Z,15.59
2017-05-17T04:41:28.319Z,15.59
2017-05-17T04:41:56.652Z,15.6
2017-05-17T04:42:24.928Z,15.63
2017-05-17T04:42:53.126Z,15.67
2017-05-17T04:43:21.359Z,15.62
2017-05-17T04:43:49.623Z,15.63
2017-05-17T04:44:17.803Z,15.68
2017-05-17T04:44:46.134Z,15.65
2017-05-17T04:45:14.373Z,15.62
2017-05-17T04:45:42.679Z,15.68
2017-05-17T04:46:10.912Z,15.7
2017-05-17T04:46:39.161Z,15.63
2017-05-17T04:47:07.604Z,15.7
2017-05-17T04:47:35.652Z,15.67
2017-05-17T04:48:03.915Z,15.71
2017-05-17T04:48:32.135Z,15.75
2017-05-17T04:49:00.407Z,15.68
2017-05-17T04:49:28.630Z,15.73
2017-05-17T04:49:56.927Z,15.71
2017-05-17T04:50:25.185Z,15.77
2017-05-17T04:50:53.507Z,15.7
2017-05-17T04:51:21.602Z,15.71
2017-05-17T04:51:49.793Z,15.6
2017-05-17T04:52:18.294Z,15.6
2017-05-17T04:52:46.512Z,15.65
2017-05-17T04:53:14.643Z,15.62
2017-05-17T04:53:42.967Z,15.74
2017-05-17T04:54:11.249Z,15.67
2017-05-17T04:54:39.505Z,15.63
2017-05-17T04:55:07.721Z,15.7
2017-05-17T04:55:36.009Z,15.67
2017-05-17T04:56:04.366Z,15.67
2017-05-17T04:56:32.672Z,15.67
2017-05-17T04:57:01.102Z,15.63
2017-05-17T04:57:29.395Z,15.73
2017-05-17T04:57:57.657Z,15.73
2017-05-17T04:58:25.989Z,15.65
2017-05-17T04:58:54.248Z,15.63
2017-05-17T04:59:22.442Z,15.63
2017-05-17T04:59:50.802Z,15.73
2017-05-17T05:00:18.841Z,15.71
2017-05-17T05:00:47.135Z,15.62
2017-05-17T05:01:15.395Z,15.63
2017-05-17T05:01:43.731Z,15.63
2017-05-17T05:02:12.095Z,15.74
2017-05-17T05:02:40.429Z,15.65
2017-05-17T05:03:08.756Z,15.67
2017-05-17T05:03:37.072Z,15.67
2017-05-17T05:04:05.292Z,15.67
2017-05-17T05:04:33.542Z,15.65
2017-05-17T05:05:01.811Z,15.58
2017-05-17T05:05:30.030Z,15.62
2017-05-17T05:05:58.266Z,15.58
2017-05-17T05:06:26.448Z,15.55
2017-05-17T05:06:54.820Z,15.59
2017-05-17T05:07:23.165Z,15.47
2017-05-17T05:07:51.496Z,15.55
2017-05-17T05:08:19.721Z,15.53
2017-05-17T05:08:48.040Z,15.58
2017-05-17T05:09:16.326Z,15.53
2017-05-17T05:09:44.653Z,15.52
2017-05-17T05:10:12.870Z,15.53
2017-05-17T05:10:41.038Z,15.52
2017-05-17T05:11:09.374Z,15.58
2017-05-17T05:11:37.738Z,15.58
2017-05-17T05:12:05.944Z,15.49
2017-05-17T05:12:34.323Z,15.62
2017-05-17T05:13:02.437Z,15.62
2017-05-17T05:13:30.714Z,15.6
2017-05-17T05:13:59.032Z,15.63
2017-05-17T05:14:27.341Z,15.63
2017-05-17T05:14:55.710Z,15.67
2017-05-17T05:15:23.805Z,15.73
2017-05-17T05:15:52.062Z,15.71
2017-05-17T05:16:20.253Z,15.71
2017-05-17T05:16:48.510Z,15.75
2017-05-17T05:17:16.831Z,15.62
2017-05-17T05:17:45.282Z,15.65
2017-05-17T05:18:13.475Z,15.63
2017-05-17T05:18:41.752Z,15.71
2017-05-17T05:19:10.059Z,15.68
2017-05-17T05:19:38.273Z,15.7
2017-05-17T05:20:06.389Z,15.75
2017-05-17T05:20:34.687Z,15.7
2017-05-17T05:21:03.187Z,15.74
2017-05-17T05:21:31.500Z,15.77
2017-05-17T05:21:59.771Z,15.71
2017-05-17T05:22:28.126Z,15.78
2017-05-17T05:22:56.294Z,15.78
2017-05-17T05:23:24.565Z,15.75
2017-05-17T05:23:52.830Z,15.78
2017-05-17T05:24:21.017Z,15.78
2017-05-17T05:24:49.252Z,15.8
2017-05-17T05:25:17.448Z,15.78
2017-05-17T05:25:45.741Z,15.8
2017-05-17T05:26:13.974Z,15.81
2017-05-17T05:26:42.132Z,15.74
2017-05-17T05:27:10.457Z,15.73
2017-05-17T05:27:38.748Z,15.75
2017-05-17T05:28:07.168Z,15.84
2017-05-17T05:28:35.554Z,15.78
2017-05-17T05:29:03.952Z,15.88
2017-05-17T05:29:32.195Z,15.78
2017-05-17T05:30:00.471Z,15.77
2017-05-17T05:30:28.680Z,15.74
2017-05-17T05:30:56.943Z,15.84
2017-05-17T05:31:25.189Z,15.8
2017-05-17T05:31:53.470Z,15.81
2017-05-17T05:32:21.630Z,15.75
2017-05-17T05:32:50.015Z,15.75
2017-05-17T05:33:18.270Z,15.73
2017-05-17T05:33:46.476Z,15.84
2017-05-17T05:34:14.718Z,15.77
2017-05-17T05:34:43.051Z,15.78
2017-05-17T05:35:11.231Z,15.7
2017-05-17T05:35:39.434Z,15.65
2017-05-17T05:36:07.607Z,15.63
2017-05-17T05:36:35.774Z,15.65
2017-05-17T05:37:04.112Z,15.62
2017-05-17T05:37:32.421Z,15.71
2017-05-17T05:38:00.769Z,15.58
2017-05-17T05:38:29.077Z,15.65
2017-05-17T05:38:57.294Z,15.62
2017-05-17T05:39:25.588Z,15.63
2017-05-17T05:39:53.855Z,15.7
2017-05-17T05:40:22.074Z,15.68
2017-05-17T05:40:50.332Z,15.67
2017-05-17T05:41:18.531Z,15.67
2017-05-17T05:41:46.819Z,15.63
2017-05-17T05:42:15.064Z,15.6
2017-05-17T05:42:43.357Z,15.67
2017-05-17T05:43:11.668Z,15.59
2017-05-17T05:43:40.004Z,15.65
2017-05-17T05:44:08.354Z,15.59
2017-05-17T05:44:36.615Z,15.53
2017-05-17T05:45:04.910Z,15.55
2017-05-17T05:45:33.224Z,15.58
2017-05-17T05:46:01.550Z,15.56
2017-05-17T05:46:29.848Z,15.49
2017-05-17T05:46:57.992Z,15.55
2017-05-17T05:47:26.332Z,15.49
2017-05-17T05:47:54.615Z,15.53
2017-05-17T05:48:22.949Z,15.49
2017-05-17T05:48:51.211Z,15.49
2017-05-17T05:49:19.565Z,15.45
2017-05-17T05:49:47.909Z,15.45
2017-05-17T05:50:15.956Z,15.52
2017-05-17T05:50:44.213Z,15.49
2017-05-17T05:51:12.509Z,15.52
2017-05-17T05:51:40.826Z,15.37
2017-05-17T05:52:09.057Z,15.37
2017-05-17T05:52:38.770Z,15.47
2017-05-17T05:53:07.282Z,15.34
2017-05-17T05:53:35.628Z,15.34
2017-05-17T05:54:03.932Z,15.35
2017-05-17T05:54:32.161Z,15.37
2017-05-17T05:55:00.504Z,15.33
2017-05-17T05:55:28.544Z,15.38
2017-05-17T05:55:56.837Z,15.44
2017-05-17T05:56:25.020Z,15.35
2017-05-17T05:56:53.239Z,15.37
2017-05-17T05:57:21.483Z,15.33
2017-05-17T05:57:49.834Z,15.27
2017-05-17T05:58:18.036Z,15.26
2017-05-17T05:58:46.351Z,15.27
2017-05-17T05:59:14.665Z,15.3
2017-05-17T05:59:42.883Z,15.27
2017-05-17T06:00:11.175Z,15.33
2017-05-17T06:00:39.444Z,15.33
2017-05-17T06:01:07.566Z,15.25
2017-05-17T06:01:35.876Z,15.22
2017-05-17T06:02:04.172Z,15.27
2017-05-17T06:02:32.412Z,15.23
2017-05-17T06:03:00.570Z,15.35
2017-05-17T06:03:29.135Z,15.25
2017-05-17T06:03:57.377Z,15.23
2017-05-17T06:04:25.588Z,15.27
2017-05-17T06:04:53.904Z,15.3
2017-05-17T06:05:22.183Z,15.25
2017-05-17T06:05:50.369Z,15.3
2017-05-17T06:06:18.589Z,15.27
2017-05-17T06:06:46.679Z,15.25
2017-05-17T06:07:14.914Z,15.25